Kezdőlap
METAR-TAF:

METAR-TAF

Repülőterek :

Qikiqtarjuaq, Nunavut, Kanada

földrajzi szélesség: 67-33N, földrajzi hosszúság: 064-02W, magasság: 6 m

Jelenlegi meteorológiai megfigyelések

A jelentés 1 órával és 1 perccel ezelõtt készült, 08:00 UTC
Dél-délnyugati szél 15 kt
Hőmérséklet -28°C
Páratartalom 62%
Légköri nyomás 1021 hPa
Látótávolság: 14.5 km
Derült ég

METAR: CYVM 270800Z AUTO 20015KT 9SM CLR M28/M33 A3014 RMK SLP207

Idő: 04:01 (09:01 UTC)

Előrejelzés

A jelentés 2 órával és 23 perccel ezelõtt készült, 06:38 UTC
Az előrejelzés 27-én 07 óra UTC és 27-én 19 óra UTC között érvényes
Dél-délnyugati szél 12 kt
Látótávolság: 10 km
Derült ég
27-én 13 óra UTC és 27-én 15 óra UTC között fokozatosan kialakuló
Délnyugati szél 5 kt

TAF: CYVM 270638Z 2707/2719 20012KT P6SM SKC BECMG 2713/2715 22005KT RMK FCST BASED ON AUTO OBS. NXT FCST BY 271300Z

Meteorológiai megfigyelések és előrejelzések több, mint 4000 repülőtéren (METAR és TAF jelentéseket).

A térképen piros és sárga pontok jelzik az elérhető meteorológiai állomásokat.

Mozgassa az egeret a pont fölött, hogy megjelenjen az állomás neve.

Azután kattintson az időjárási megfigyelések és előrejelzések megtekintéséhez.

A térkép megváltoztatása: kattintson a fekete keresztel jelölt zöld gombra ráközelítéshez, a vonallal jelölt zöld gombra távolításhoz, vagy a zöld nyilakra a szomszédos térképek eléréséhez.


METAR-TAF: